Time;durP1;ratioP1;P1;durP2;ratioP2;P2;SDS_P1;SDS_P2;PMS_P1;PMS_P2;Temp;Humidity;BMP_temperature;BMP_pressure;BME280_temperature;BME280_humidity;BME280_pressure;Samples;Min_cycle;Max_cycle;Signal;HPM_P1;HPM_P2
2021/12/07 00:01:48;;;;;;;27.65;11.38;;;;;;;;;;4948786;28;20027;-87
2021/12/07 00:04:14;;;;;;;42.55;16.35;;;;;;;;;;4955306;28;20505;-87
2021/12/07 00:06:40;;;;;;;34.10;13.25;;;;;;;;;;4947701;28;20034;-86
2021/12/07 00:09:13;;;;;;;35.70;15.00;;;;;;;;;;4946845;28;20037;-87
2021/12/07 00:11:39;;;;;;;21.90;7.93;;;;;;;;;;4943813;28;20102;-87
2021/12/07 00:14:12;;;;;;;25.58;10.20;;;;;;;;;;4946515;28;20042;-86
2021/12/07 00:16:39;;;;;;;22.98;10.27;;;;;;;;;;4962874;28;20022;-86
2021/12/07 00:19:05;;;;;;;31.30;14.02;;;;;;;;;;4962239;28;20078;-88
2021/12/07 00:21:31;;;;;;;40.08;16.08;;;;;;;;;;4952265;28;20038;-88
2021/12/07 00:23:57;;;;;;;19.83;8.52;;;;;;;;;;4965678;28;20034;-87
2021/12/07 00:26:24;;;;;;;29.50;13.35;;;;;;;;;;4947087;28;20569;-87
2021/12/07 00:28:50;;;;;;;21.88;7.75;;;;;;;;;;4950109;28;20039;-88
2021/12/07 00:31:31;;;;;;;31.45;14.15;;;;;;;;;;4944833;28;20622;-88
2021/12/07 00:36:39;;;;;;;23.17;10.25;;;;;;;;;;4962090;28;20950;-88
2021/12/07 00:39:06;;;;;;;34.25;13.32;;;;;;;;;;4956160;28;20035;-85
2021/12/07 00:41:33;;;;;;;22.30;9.13;;;;;;;;;;4964037;28;20085;-88
2021/12/07 00:43:59;;;;;;;37.53;16.38;;;;;;;;;;4964113;28;20039;-87
2021/12/07 00:46:26;;;;;;;32.63;14.45;;;;;;;;;;4959253;28;20046;-88
2021/12/07 00:48:52;;;;;;;33.08;13.00;;;;;;;;;;4969397;28;20058;-87
2021/12/07 00:51:18;;;;;;;43.80;15.10;;;;;;;;;;4951241;28;20122;-88
2021/12/07 00:53:44;;;;;;;38.08;16.27;;;;;;;;;;4950609;28;20048;-87
2021/12/07 00:56:11;;;;;;;14.52;7.25;;;;;;;;;;4970143;28;20491;-87
2021/12/07 00:58:37;;;;;;;55.25;14.45;;;;;;;;;;4967988;28;20439;-88
2021/12/07 01:01:10;;;;;;;21.13;11.23;;;;;;;;;;4962087;28;20069;-87
2021/12/07 01:03:37;;;;;;;37.00;14.20;;;;;;;;;;4967597;28;20142;-87
2021/12/07 01:06:15;;;;;;;43.13;16.40;;;;;;;;;;4964802;28;20038;-88
2021/12/07 01:25:09;;;;;;;30.33;12.25;;;;;;;;;;4979321;28;20053;-87
2021/12/07 01:27:36;;;;;;;24.45;10.43;;;;;;;;;;4984388;28;20037;-86
2021/12/07 01:30:11;;;;;;;15.30;6.10;;;;;;;;;;4967282;28;20425;-84
2021/12/07 01:38:25;;;;;;;27.73;11.57;;;;;;;;;;4987397;28;20033;-87
2021/12/07 02:01:44;;;;;;;33.72;13.55;;;;;;;;;;4977421;28;20113;-87
2021/12/07 02:04:10;;;;;;;28.48;12.52;;;;;;;;;;4976714;28;20545;-87
2021/12/07 02:06:36;;;;;;;35.78;14.43;;;;;;;;;;4957553;28;20116;-87
2021/12/07 02:09:05;;;;;;;27.42;12.43;;;;;;;;;;4969175;28;20065;-87
2021/12/07 02:11:31;;;;;;;39.45;14.15;;;;;;;;;;4981418;28;20049;-88
2021/12/07 02:16:27;;;;;;;27.90;13.07;;;;;;;;;;4983403;28;20034;-88
2021/12/07 02:18:53;;;;;;;37.42;14.32;;;;;;;;;;4969542;28;20026;-88
2021/12/07 02:21:21;;;;;;;30.77;12.90;;;;;;;;;;4962159;28;20055;-87
2021/12/07 02:23:47;;;;;;;27.27;11.05;;;;;;;;;;4950359;28;20522;-87
2021/12/07 02:26:14;;;;;;;21.83;9.15;;;;;;;;;;4958307;28;20070;-86
2021/12/07 02:28:40;;;;;;;17.20;8.13;;;;;;;;;;4948563;28;20031;-88
2021/12/07 02:31:07;;;;;;;19.48;9.20;;;;;;;;;;4947852;28;20027;-87
2021/12/07 02:33:34;;;;;;;23.02;11.13;;;;;;;;;;4966577;28;20316;-86
2021/12/07 02:36:00;;;;;;;31.98;12.88;;;;;;;;;;4962865;28;20042;-87
2021/12/07 02:38:26;;;;;;;26.58;9.82;;;;;;;;;;4964539;28;20114;-86
2021/12/07 02:40:52;;;;;;;29.98;14.13;;;;;;;;;;4944055;28;20027;-88
2021/12/07 02:43:18;;;;;;;14.77;6.88;;;;;;;;;;4948813;28;20399;-87
2021/12/07 02:45:44;;;;;;;27.73;12.20;;;;;;;;;;4958079;28;20484;-87
2021/12/07 02:48:10;;;;;;;13.95;6.82;;;;;;;;;;4958218;28;20487;-87
2021/12/07 02:50:37;;;;;;;21.55;11.10;;;;;;;;;;4944994;28;20038;-85
2021/12/07 02:53:03;;;;;;;14.85;7.05;;;;;;;;;;4957963;28;20035;-88
2021/12/07 02:55:32;;;;;;;19.52;8.68;;;;;;;;;;4942363;28;20093;-87
2021/12/07 02:57:58;;;;;;;23.40;9.50;;;;;;;;;;4948818;28;20110;-87
2021/12/07 03:00:31;;;;;;;21.45;8.82;;;;;;;;;;4960789;28;20042;-87
2021/12/07 03:03:03;;;;;;;27.10;10.98;;;;;;;;;;4943482;28;20023;-86
2021/12/07 03:08:24;;;;;;;37.47;14.25;;;;;;;;;;4964220;28;20030;-85
2021/12/07 03:27:17;;;;;;;36.33;14.70;;;;;;;;;;4982541;28;20568;-87
2021/12/07 03:29:43;;;;;;;27.55;12.00;;;;;;;;;;4965304;28;20034;-87
2021/12/07 03:32:09;;;;;;;31.73;14.15;;;;;;;;;;4981808;28;20133;-88
2021/12/07 03:34:35;;;;;;;25.63;12.38;;;;;;;;;;4968694;28;20026;-88
2021/12/07 03:37:02;;;;;;;29.88;12.02;;;;;;;;;;4970619;28;20057;-87
2021/12/07 03:39:28;;;;;;;25.48;10.02;;;;;;;;;;4970383;28;20041;-84
2021/12/07 03:41:54;;;;;;;30.95;13.13;;;;;;;;;;4962341;28;20030;-87
2021/12/07 03:44:20;;;;;;;29.70;11.93;;;;;;;;;;4966893;28;20121;-87
2021/12/07 03:46:46;;;;;;;29.13;12.95;;;;;;;;;;4982413;28;20684;-88
2021/12/07 03:49:12;;;;;;;13.88;5.93;;;;;;;;;;4968102;28;20150;-88
2021/12/07 03:51:38;;;;;;;23.58;10.48;;;;;;;;;;4963777;28;20046;-87
2021/12/07 03:54:04;;;;;;;33.72;13.40;;;;;;;;;;4969087;28;20080;-85
2021/12/07 03:56:30;;;;;;;35.58;14.82;;;;;;;;;;4964415;28;20482;-87
2021/12/07 03:58:56;;;;;;;31.15;13.23;;;;;;;;;;4986693;28;20105;-87
2021/12/07 04:01:23;;;;;;;27.40;12.35;;;;;;;;;;4983556;28;20113;-87
2021/12/07 04:03:52;;;;;;;25.88;11.40;;;;;;;;;;4984921;28;20041;-87
2021/12/07 04:06:18;;;;;;;24.63;9.60;;;;;;;;;;4981537;28;20053;-88
2021/12/07 04:08:45;;;;;;;27.80;11.23;;;;;;;;;;4965398;28;20116;-85
2021/12/07 04:11:18;;;;;;;18.63;9.02;;;;;;;;;;4983680;28;20034;-88
2021/12/07 04:13:45;;;;;;;25.30;10.57;;;;;;;;;;4982181;28;20030;-87
2021/12/07 04:16:12;;;;;;;16.38;6.82;;;;;;;;;;4988379;28;20036;-88
2021/12/07 04:18:38;;;;;;;32.45;12.43;;;;;;;;;;4989825;28;20073;-87
2021/12/07 04:21:04;;;;;;;23.52;10.13;;;;;;;;;;4971906;28;20576;-87
2021/12/07 04:23:32;;;;;;;22.20;9.55;;;;;;;;;;4986331;28;20502;-87
2021/12/07 04:25:58;;;;;;;31.40;11.02;;;;;;;;;;4972555;28;20100;-88
2021/12/07 04:28:27;;;;;;;31.45;13.45;;;;;;;;;;4973722;28;20499;-87
2021/12/07 04:30:53;;;;;;;25.63;11.43;;;;;;;;;;4988609;28;20572;-86
2021/12/07 04:33:19;;;;;;;22.75;10.73;;;;;;;;;;4985764;28;20295;-87
2021/12/07 04:35:47;;;;;;;32.08;11.57;;;;;;;;;;4974014;28;20034;-89
2021/12/07 04:38:13;;;;;;;19.83;9.98;;;;;;;;;;4968815;28;20039;-87
2021/12/07 04:40:40;;;;;;;24.17;10.35;;;;;;;;;;4972023;28;20035;-87
2021/12/07 04:43:07;;;;;;;31.00;12.15;;;;;;;;;;4971008;28;20474;-87
2021/12/07 04:59:09;;;;;;;21.80;9.27;;;;;;;;;;4984610;28;20476;-88
2021/12/07 05:01:35;;;;;;;21.08;10.27;;;;;;;;;;4980184;28;20125;-85
2021/12/07 05:04:09;;;;;;;26.13;10.15;;;;;;;;;;4985567;28;20069;-87
2021/12/07 05:06:40;;;;;;;25.38;10.48;;;;;;;;;;4969689;28;20027;-88
2021/12/07 05:09:27;;;;;;;23.98;9.55;;;;;;;;;;4973976;28;20030;-88
2021/12/07 05:14:28;;;;;;;21.92;8.80;;;;;;;;;;4985535;28;20518;-88
2021/12/07 05:26:00;;;;;;;22.10;10.07;;;;;;;;;;4984609;28;20045;-86
2021/12/07 05:38:53;;;;;;;22.25;7.60;;;;;;;;;;4988529;28;20049;-88
2021/12/07 05:41:19;;;;;;;17.17;7.63;;;;;;;;;;4984515;28;20018;-88
2021/12/07 05:43:46;;;;;;;19.02;8.50;;;;;;;;;;4984799;28;20065;-88
2021/12/07 05:46:12;;;;;;;20.75;8.27;;;;;;;;;;4984050;28;20077;-86
2021/12/07 05:48:38;;;;;;;20.98;9.05;;;;;;;;;;4987894;28;20521;-88
2021/12/07 05:51:04;;;;;;;27.75;7.57;;;;;;;;;;4986472;28;20030;-88
2021/12/07 05:53:30;;;;;;;26.00;9.25;;;;;;;;;;4985077;28;20069;-87
2021/12/07 05:55:56;;;;;;;15.00;6.75;;;;;;;;;;4972554;28;20027;-85
2021/12/07 05:58:23;;;;;;;22.15;6.22;;;;;;;;;;4970744;28;20030;-87
2021/12/07 06:00:50;;;;;;;21.05;8.38;;;;;;;;;;4986852;28;20057;-88
2021/12/07 06:03:16;;;;;;;17.95;6.82;;;;;;;;;;4970240;28;20022;-87
2021/12/07 06:05:43;;;;;;;16.58;7.07;;;;;;;;;;4987006;28;20034;-88
2021/12/07 06:08:09;;;;;;;22.65;7.35;;;;;;;;;;4982879;28;20022;-85
2021/12/07 06:10:36;;;;;;;22.13;7.78;;;;;;;;;;4972827;28;20631;-88
2021/12/07 06:13:02;;;;;;;19.35;8.93;;;;;;;;;;4967279;28;20031;-87
2021/12/07 06:15:32;;;;;;;25.58;7.63;;;;;;;;;;4977191;28;20038;-88
2021/12/07 06:17:58;;;;;;;25.05;6.60;;;;;;;;;;4965836;28;20026;-87
2021/12/07 06:20:27;;;;;;;18.92;5.88;;;;;;;;;;4964953;28;20034;-87
2021/12/07 06:22:53;;;;;;;17.70;6.38;;;;;;;;;;4980342;28;20050;-88
2021/12/07 06:25:19;;;;;;;14.77;5.55;;;;;;;;;;4963411;28;20513;-85
2021/12/07 06:27:45;;;;;;;22.85;6.43;;;;;;;;;;4963814;28;20038;-87
2021/12/07 06:30:12;;;;;;;24.15;5.75;;;;;;;;;;4979776;28;20042;-88
2021/12/07 06:32:41;;;;;;;18.75;6.68;;;;;;;;;;4970509;28;20042;-87
2021/12/07 06:38:00;;;;;;;18.58;6.70;;;;;;;;;;4987266;28;20065;-88
2021/12/07 06:40:26;;;;;;;15.65;6.78;;;;;;;;;;4982476;28;20522;-87
2021/12/07 06:42:54;;;;;;;16.35;5.03;;;;;;;;;;4979673;28;20026;-88
2021/12/07 06:45:20;;;;;;;19.88;6.72;;;;;;;;;;4968630;28;20027;-88
2021/12/07 06:47:46;;;;;;;15.32;7.00;;;;;;;;;;4988212;28;20063;-87
2021/12/07 06:50:12;;;;;;;28.77;6.53;;;;;;;;;;4979981;28;20066;-87
2021/12/07 06:52:38;;;;;;;24.33;7.05;;;;;;;;;;4989260;28;20027;-88
2021/12/07 06:55:05;;;;;;;14.48;5.65;;;;;;;;;;4980779;28;20034;-86
2021/12/07 06:57:31;;;;;;;13.35;5.35;;;;;;;;;;4983046;28;20417;-88
2021/12/07 06:59:57;;;;;;;16.70;3.75;;;;;;;;;;4967495;28;20049;-87
2021/12/07 07:02:29;;;;;;;21.40;5.90;;;;;;;;;;4964758;28;20473;-88
2021/12/07 07:04:55;;;;;;;18.15;6.63;;;;;;;;;;4969571;28;20030;-87
2021/12/07 07:07:22;;;;;;;22.60;6.28;;;;;;;;;;4970080;28;20038;-86
2021/12/07 07:09:49;;;;;;;13.18;5.35;;;;;;;;;;4965550;28;20394;-88
2021/12/07 07:12:17;;;;;;;20.25;5.70;;;;;;;;;;4987668;28;20090;-88
2021/12/07 07:14:43;;;;;;;20.95;5.93;;;;;;;;;;4968423;28;20487;-88
2021/12/07 07:17:09;;;;;;;27.70;5.97;;;;;;;;;;4979542;28;20022;-87
2021/12/07 07:19:35;;;;;;;22.17;5.97;;;;;;;;;;4968098;28;20026;-89
2021/12/07 07:22:02;;;;;;;16.27;6.00;;;;;;;;;;4983294;28;20101;-88
2021/12/07 07:24:32;;;;;;;16.95;6.03;;;;;;;;;;4970000;28;20034;-87
2021/12/07 07:26:59;;;;;;;11.80;5.95;;;;;;;;;;4985430;28;20030;-87
2021/12/07 07:29:25;;;;;;;21.20;6.75;;;;;;;;;;4966904;28;20065;-88
2021/12/07 07:31:51;;;;;;;14.90;5.90;;;;;;;;;;4981088;28;20045;-87
2021/12/07 07:34:17;;;;;;;20.25;6.10;;;;;;;;;;4968494;28;20046;-88
2021/12/07 07:36:43;;;;;;;19.08;6.40;;;;;;;;;;4968810;28;20034;-88
2021/12/07 07:39:10;;;;;;;26.23;6.55;;;;;;;;;;4960300;28;20082;-90
2021/12/07 07:41:36;;;;;;;21.70;6.90;;;;;;;;;;4977975;28;20022;-88
2021/12/07 07:44:03;;;;;;;17.42;6.63;;;;;;;;;;4980472;28;20034;-87
2021/12/07 07:46:32;;;;;;;25.35;6.60;;;;;;;;;;4984269;28;20035;-90
2021/12/07 07:49:00;;;;;;;11.55;5.40;;;;;;;;;;4966833;28;20023;-89
2021/12/07 07:51:26;;;;;;;25.58;5.95;;;;;;;;;;4966542;28;20080;-91
2021/12/07 07:53:54;;;;;;;24.98;6.57;;;;;;;;;;4984776;28;20035;-90
2021/12/07 07:56:20;;;;;;;11.77;5.05;;;;;;;;;;4968618;28;20018;-89
2021/12/07 07:58:46;;;;;;;20.15;6.10;;;;;;;;;;4962335;28;20030;-91
2021/12/07 08:01:12;;;;;;;23.08;6.65;;;;;;;;;;4970218;28;20066;-92
2021/12/07 08:03:41;;;;;;;26.55;9.63;;;;;;;;;;4968915;28;20042;-93
2021/12/07 08:06:07;;;;;;;20.88;7.97;;;;;;;;;;4978821;28;20516;-91
2021/12/07 08:08:33;;;;;;;19.40;5.32;;;;;;;;;;4986361;28;20105;-90
2021/12/07 08:11:01;;;;;;;21.05;6.60;;;;;;;;;;4969164;28;20684;-89
2021/12/07 08:13:29;;;;;;;16.70;6.45;;;;;;;;;;4965134;28;20450;-90
2021/12/07 08:15:55;;;;;;;16.48;6.63;;;;;;;;;;4981490;28;20089;-91
2021/12/07 08:18:21;;;;;;;24.67;6.40;;;;;;;;;;4967852;28;20038;-89
2021/12/07 08:20:47;;;;;;;19.58;6.82;;;;;;;;;;4966689;28;20058;-87
2021/12/07 08:23:13;;;;;;;23.05;6.75;;;;;;;;;;4984760;28;20631;-88
2021/12/07 08:25:42;;;;;;;30.77;6.35;;;;;;;;;;4967851;28;20026;-88
2021/12/07 08:28:11;;;;;;;18.40;6.28;;;;;;;;;;4980973;28;20503;-88
2021/12/07 08:30:40;;;;;;;19.83;5.97;;;;;;;;;;4968274;28;20026;-89
2021/12/07 08:33:07;;;;;;;17.08;6.40;;;;;;;;;;4986331;28;20495;-95
2021/12/07 08:35:37;;;;;;;11.88;5.53;;;;;;;;;;4965582;28;20102;-87
2021/12/07 08:38:04;;;;;;;19.00;6.82;;;;;;;;;;4980018;28;20061;-88
2021/12/07 08:40:31;;;;;;;18.15;6.32;;;;;;;;;;4977029;28;20869;-89
2021/12/07 08:42:57;;;;;;;29.23;7.63;;;;;;;;;;4976692;28;20031;-87
2021/12/07 08:45:24;;;;;;;23.73;6.07;;;;;;;;;;4981867;28;20038;-89
2021/12/07 08:47:51;;;;;;;21.15;5.80;;;;;;;;;;4966537;28;20125;-88
2021/12/07 08:50:18;;;;;;;15.90;5.40;;;;;;;;;;4984280;28;20034;-88
2021/12/07 08:52:45;;;;;;;16.85;6.60;;;;;;;;;;4963843;28;20026;-88
2021/12/07 09:00:33;;;;;;;14.77;5.93;;;;;;;;;;4976456;28;20085;-88
2021/12/07 09:02:59;;;;;;;21.88;6.60;;;;;;;;;;4984543;28;20026;-87
2021/12/07 09:05:25;;;;;;;29.10;8.43;;;;;;;;;;4981658;28;20039;-87
2021/12/07 09:07:52;;;;;;;23.55;7.40;;;;;;;;;;4987015;28;20077;-88
2021/12/07 09:10:18;;;;;;;18.85;7.47;;;;;;;;;;4980531;28;20145;-89
2021/12/07 09:12:45;;;;;;;25.75;6.32;;;;;;;;;;4983454;28;20054;-88
2021/12/07 09:15:11;;;;;;;22.58;5.88;;;;;;;;;;4983211;28;20053;-89
2021/12/07 09:17:38;;;;;;;9.25;4.60;;;;;;;;;;4985732;28;20046;-87
2021/12/07 09:20:10;;;;;;;19.38;5.53;;;;;;;;;;4969944;28;20549;-87
2021/12/07 09:22:42;;;;;;;14.45;4.32;;;;;;;;;;4983098;28;20133;-88
2021/12/07 09:25:16;;;;;;;18.17;5.88;;;;;;;;;;4984432;28;20026;-86
2021/12/07 09:27:42;;;;;;;19.88;6.75;;;;;;;;;;4983606;28;20057;-89
2021/12/07 09:30:09;;;;;;;18.15;5.35;;;;;;;;;;4968652;28;20073;-88
2021/12/07 09:32:35;;;;;;;19.80;5.05;;;;;;;;;;4971022;28;20038;-87
2021/12/07 09:35:02;;;;;;;20.55;5.05;;;;;;;;;;4981320;28;20042;-88
2021/12/07 09:37:29;;;;;;;18.48;6.13;;;;;;;;;;4967129;28;20108;-88
2021/12/07 09:39:55;;;;;;;25.10;6.53;;;;;;;;;;4968145;28;20035;-88
2021/12/07 09:42:21;;;;;;;17.10;3.92;;;;;;;;;;4987091;28;20073;-88
2021/12/07 09:44:47;;;;;;;19.40;4.05;;;;;;;;;;4973157;28;20100;-87
2021/12/07 09:47:13;;;;;;;12.52;4.65;;;;;;;;;;4964384;28;20053;-88
2021/12/07 09:49:39;;;;;;;17.45;5.30;;;;;;;;;;4970972;28;20031;-89
2021/12/07 09:52:06;;;;;;;7.40;2.65;;;;;;;;;;4969743;28;20439;-89
2021/12/07 09:54:32;;;;;;;20.23;6.22;;;;;;;;;;4983661;28;20118;-88
2021/12/07 09:56:58;;;;;;;33.35;6.25;;;;;;;;;;4969900;28;20086;-89
2021/12/07 09:59:24;;;;;;;15.77;4.80;;;;;;;;;;4972164;28;20371;-89
2021/12/07 10:01:50;;;;;;;22.23;5.60;;;;;;;;;;4966123;28;20033;-90
2021/12/07 10:04:16;;;;;;;21.95;4.78;;;;;;;;;;4986841;28;20092;-90
2021/12/07 10:06:42;;;;;;;14.60;4.32;;;;;;;;;;4977721;28;20038;-88
2021/12/07 10:09:09;;;;;;;9.60;4.00;;;;;;;;;;4981810;28;20062;-88
2021/12/07 10:11:35;;;;;;;16.92;3.78;;;;;;;;;;4980930;28;20486;-88
2021/12/07 10:14:01;;;;;;;13.90;4.47;;;;;;;;;;4984995;28;20042;-88
2021/12/07 10:16:28;;;;;;;13.43;4.30;;;;;;;;;;4979853;28;20023;-88
2021/12/07 10:18:54;;;;;;;12.73;4.55;;;;;;;;;;4966790;28;20034;-88
2021/12/07 10:21:26;;;;;;;24.17;4.97;;;;;;;;;;4978967;28;20495;-88
2021/12/07 10:23:54;;;;;;;13.73;4.07;;;;;;;;;;4985988;28;20402;-89
2021/12/07 10:26:22;;;;;;;14.95;3.95;;;;;;;;;;4979762;28;20042;-88
2021/12/07 10:28:50;;;;;;;14.57;3.55;;;;;;;;;;4982836;28;20026;-89
2021/12/07 10:31:22;;;;;;;13.57;4.55;;;;;;;;;;4966570;28;20046;-89
2021/12/07 10:33:52;;;;;;;14.10;4.93;;;;;;;;;;4982320;28;20023;-89
2021/12/07 10:36:42;;;;;;;16.00;4.53;;;;;;;;;;4980965;28;20027;-89
2021/12/07 10:39:15;;;;;;;;;;;;;;;;;;4964453;28;20042;-89
2021/12/07 10:41:43;;;;;;;17.77;5.10;;;;;;;;;;4967815;28;19920;-88
2021/12/07 10:44:28;;;;;;;8.80;3.90;;;;;;;;;;4985071;28;20376;-88
2021/12/07 10:46:57;;;;;;;14.05;5.38;;;;;;;;;;4981521;28;20089;-88
2021/12/07 10:49:29;;;;;;;12.05;4.07;;;;;;;;;;4957480;28;20368;-88
2021/12/07 10:52:07;;;;;;;14.43;5.38;;;;;;;;;;4963710;28;20497;-88
2021/12/07 10:54:35;;;;;;;19.40;6.32;;;;;;;;;;4981244;28;20132;-89
2021/12/07 10:57:02;;;;;;;17.40;6.65;;;;;;;;;;4986561;28;20105;-88
2021/12/07 10:59:29;;;;;;;10.65;6.35;;;;;;;;;;4974794;28;20054;-89
2021/12/07 11:01:55;;;;;;;13.80;6.20;;;;;;;;;;4978664;28;20109;-88
2021/12/07 11:04:29;;;;;;;14.98;6.75;;;;;;;;;;4968882;28;20524;-89
2021/12/07 11:07:16;;;;;;;11.45;6.82;;;;;;;;;;4966975;28;20565;-88
2021/12/07 11:09:42;;;;;;;;;;;;;;;;;;4981130;28;20556;-89
2021/12/07 11:12:09;;;;;;;16.40;6.93;;;;;;;;;;4966392;28;19909;-89
2021/12/07 11:14:39;;;;;;;17.40;6.85;;;;;;;;;;4980630;28;20027;-89
2021/12/07 11:17:05;;;;;;;14.10;6.00;;;;;;;;;;4970432;28;20038;-88
2021/12/07 11:19:31;;;;;;;12.20;5.28;;;;;;;;;;4977512;28;20054;-89
2021/12/07 11:22:03;;;;;;;8.13;5.60;;;;;;;;;;4964717;28;20026;-88
2021/12/07 11:24:44;;;;;;;9.10;4.90;;;;;;;;;;4981232;28;20088;-88
2021/12/07 11:30:05;;;;;;;19.95;5.22;;;;;;;;;;4983880;28;20054;-89
2021/12/07 11:32:31;;;;;;;9.38;4.43;;;;;;;;;;4976702;28;20445;-89
2021/12/07 11:35:08;;;;;;;13.95;4.72;;;;;;;;;;4970710;28;20034;-89
2021/12/07 11:37:38;;;;;;;9.75;4.20;;;;;;;;;;4960525;28;20030;-89
2021/12/07 11:40:06;;;;;;;8.13;4.45;;;;;;;;;;4980520;28;20022;-89
2021/12/07 11:42:37;;;;;;;12.70;4.65;;;;;;;;;;4962956;28;20041;-89
2021/12/07 11:45:33;;;;;;;12.52;3.53;;;;;;;;;;4971228;28;20025;-89
2021/12/07 11:48:06;;;;;;;6.82;5.88;;;;;;;;;;4947630;28;20042;-88
2021/12/07 11:50:37;;;;;;;16.30;3.78;;;;;;;;;;4980822;28;20130;-88
2021/12/07 11:53:08;;;;;;;18.23;4.13;;;;;;;;;;4965619;28;20129;-89
2021/12/07 11:55:36;;;;;;;14.70;2.30;;;;;;;;;;4962683;28;20038;-89
2021/12/07 11:58:05;;;;;;;7.18;3.38;;;;;;;;;;4967161;28;20065;-89
2021/12/07 12:00:34;;;;;;;14.00;4.22;;;;;;;;;;4982605;28;20041;-88
2021/12/07 12:03:05;;;;;;;16.42;10.43;;;;;;;;;;4981203;28;20510;-91
2021/12/07 12:05:31;;;;;;;11.70;4.00;;;;;;;;;;4976445;28;20088;-93
2021/12/07 12:07:57;;;;;;;19.58;4.47;;;;;;;;;;4969177;28;20324;-89
2021/12/07 12:10:23;;;;;;;17.15;3.85;;;;;;;;;;4978427;28;20462;-93
2021/12/07 12:13:12;;;;;;;17.50;3.47;;;;;;;;;;4969896;28;20161;-94
2021/12/07 12:15:38;;;;;;;14.57;4.22;;;;;;;;;;4988752;28;20064;-93
2021/12/07 12:18:15;;;;;;;4.40;3.15;;;;;;;;;;4981695;28;20026;-94
2021/12/07 12:20:47;;;;;;;9.23;3.42;;;;;;;;;;4980347;28;20495;-93
2021/12/07 12:23:23;;;;;;;10.77;3.78;;;;;;;;;;4966284;28;20540;-92
2021/12/07 12:25:56;;;;;;;7.40;3.70;;;;;;;;;;4985282;28;20655;-91
2021/12/07 12:28:25;;;;;;;11.20;3.58;;;;;;;;;;4982445;28;20046;-91
2021/12/07 12:30:51;;;;;;;7.00;2.17;;;;;;;;;;4987465;28;20026;-92
2021/12/07 12:33:17;;;;;;;13.52;3.83;;;;;;;;;;4973783;28;20405;-93
2021/12/07 12:35:58;;;;;;;13.05;3.47;;;;;;;;;;4989624;28;20026;-93
2021/12/07 12:38:26;;;;;;;12.07;3.30;;;;;;;;;;4975086;28;20023;-90
2021/12/07 12:40:57;;;;;;;8.40;2.67;;;;;;;;;;4972327;28;20062;-90
2021/12/07 12:43:34;;;;;;;11.90;3.60;;;;;;;;;;4984923;28;20563;-91
2021/12/07 12:46:04;;;;;;;14.85;2.67;;;;;;;;;;4972856;28;20042;-91
2021/12/07 12:48:32;;;;;;;9.20;3.47;;;;;;;;;;4988464;28;20034;-90
2021/12/07 12:50:58;;;;;;;16.15;3.17;;;;;;;;;;4968712;28;20022;-90
2021/12/07 12:53:24;;;;;;;11.23;4.43;;;;;;;;;;4971198;28;20042;-88
2021/12/07 12:56:00;;;;;;;9.40;2.42;;;;;;;;;;4981905;28;20076;-89
2021/12/07 12:58:34;;;;;;;18.90;4.13;;;;;;;;;;4987319;28;20034;-91
2021/12/07 13:01:12;;;;;;;10.50;3.47;;;;;;;;;;4981346;28;20049;-91
2021/12/07 13:03:44;;;;;;;9.38;2.38;;;;;;;;;;4983906;28;20037;-89
2021/12/07 13:06:15;;;;;;;18.98;3.67;;;;;;;;;;4980671;28;20042;-88
2021/12/07 13:08:59;;;;;;;9.25;3.13;;;;;;;;;;4971289;28;20490;-91
2021/12/07 13:11:34;;;;;;;12.13;2.67;;;;;;;;;;4971618;28;20034;-89
2021/12/07 13:14:00;;;;;;;9.20;2.63;;;;;;;;;;4967549;28;20453;-89
2021/12/07 13:16:26;;;;;;;10.70;2.65;;;;;;;;;;4972031;28;20034;-91
2021/12/07 13:19:00;;;;;;;16.95;3.35;;;;;;;;;;4973926;28;20121;-88
2021/12/07 13:21:27;;;;;;;12.50;3.72;;;;;;;;;;4984543;28;20073;-92
2021/12/07 13:23:57;;;;;;;10.25;3.10;;;;;;;;;;4983730;28;20387;-91
2021/12/07 13:26:24;;;;;;;9.65;2.97;;;;;;;;;;4981895;28;20121;-90
2021/12/07 13:29:01;;;;;;;10.77;3.63;;;;;;;;;;4980878;28;20544;-91
2021/12/07 13:31:35;;;;;;;14.65;3.72;;;;;;;;;;4982372;28;20026;-91
2021/12/07 13:34:02;;;;;;;23.00;3.80;;;;;;;;;;4979875;28;20493;-90
2021/12/07 13:36:43;;;;;;;13.85;3.00;;;;;;;;;;4990287;28;20018;-90
2021/12/07 13:39:16;;;;;;;10.57;3.55;;;;;;;;;;4987466;28;20078;-90
2021/12/07 13:42:09;;;;;;;13.68;3.97;;;;;;;;;;4985245;28;20505;-92
2021/12/07 13:44:44;;;;;;;16.15;3.45;;;;;;;;;;4982190;28;20501;-90
2021/12/07 13:47:16;;;;;;;15.32;3.80;;;;;;;;;;4987217;28;20034;-91
2021/12/07 13:49:44;;;;;;;13.88;3.90;;;;;;;;;;4985738;28;20494;-90
2021/12/07 13:52:18;;;;;;;11.30;2.35;;;;;;;;;;4962732;28;20038;-88
2021/12/07 13:54:46;;;;;;;11.35;3.90;;;;;;;;;;4987204;28;20718;-90
2021/12/07 13:57:14;;;;;;;19.10;4.05;;;;;;;;;;4964834;28;20412;-90
2021/12/07 13:59:40;;;;;;;15.63;5.82;;;;;;;;;;4967433;28;20505;-91
2021/12/07 14:02:06;;;;;;;17.13;4.60;;;;;;;;;;4968698;28;20574;-91
2021/12/07 14:04:32;;;;;;;23.50;5.05;;;;;;;;;;4987489;28;21081;-91
2021/12/07 14:06:59;;;;;;;11.63;4.53;;;;;;;;;;4969167;28;20117;-91
2021/12/07 14:09:25;;;;;;;8.77;3.55;;;;;;;;;;4980721;28;20026;-90
2021/12/07 14:11:58;;;;;;;16.88;5.20;;;;;;;;;;4977573;28;20075;-91
2021/12/07 14:14:24;;;;;;;18.80;4.68;;;;;;;;;;4964557;28;20023;-92
2021/12/07 14:16:54;;;;;;;15.68;4.32;;;;;;;;;;4983896;28;20027;-90
2021/12/07 14:19:20;;;;;;;17.83;4.22;;;;;;;;;;4967625;28;20110;-89
2021/12/07 14:21:47;;;;;;;17.48;4.45;;;;;;;;;;4968350;28;20626;-90
2021/12/07 14:24:19;;;;;;;12.48;5.22;;;;;;;;;;4984950;28;20056;-90
2021/12/07 14:26:45;;;;;;;14.60;4.38;;;;;;;;;;4969898;28;20034;-89
2021/12/07 14:29:54;;;;;;;18.00;4.75;;;;;;;;;;4983552;28;20517;-92
2021/12/07 14:32:20;;;;;;;18.70;4.45;;;;;;;;;;4928759;28;20046;-91
2021/12/07 14:34:46;;;;;;;16.38;5.53;;;;;;;;;;4983246;28;20038;-94
2021/12/07 14:37:12;;;;;;;18.33;4.20;;;;;;;;;;4986122;28;20033;-93
2021/12/07 14:39:40;;;;;;;19.20;3.88;;;;;;;;;;4985330;28;20470;-91
2021/12/07 14:42:08;;;;;;;14.85;4.75;;;;;;;;;;4972136;28;20038;-92
2021/12/07 14:44:51;;;;;;;22.48;4.82;;;;;;;;;;4988049;28;20049;-96
2021/12/07 14:47:23;;;;;;;18.15;4.43;;;;;;;;;;4957459;28;20061;-94
2021/12/07 14:49:51;;;;;;;18.50;4.63;;;;;;;;;;4985533;28;20545;-95
2021/12/07 14:52:24;;;;;;;18.33;5.60;;;;;;;;;;4981854;28;20061;-95
2021/12/07 14:54:51;;;;;;;11.55;4.90;;;;;;;;;;4982718;28;20034;-92
2021/12/07 14:57:20;;;;;;;17.67;4.88;;;;;;;;;;4968806;28;20034;-93
2021/12/07 14:59:55;;;;;;;13.00;4.68;;;;;;;;;;4987451;28;20023;-96
2021/12/07 15:02:25;;;;;;;18.67;5.68;;;;;;;;;;4969970;28;20104;-94
2021/12/07 15:04:56;;;;;;;15.48;4.78;;;;;;;;;;4983988;28;20034;-96
2021/12/07 15:07:30;;;;;;;23.65;5.80;;;;;;;;;;4983268;28;20037;-94
2021/12/07 15:09:56;;;;;;;21.65;5.60;;;;;;;;;;4983454;28;20593;-95
2021/12/07 15:12:26;;;;;;;19.70;5.90;;;;;;;;;;4971936;28;20030;-96
2021/12/07 15:15:12;;;;;;;24.00;5.80;;;;;;;;;;4985695;28;20043;-94
2021/12/07 15:17:41;;;;;;;26.50;6.18;;;;;;;;;;4964418;28;20062;-94
2021/12/07 15:20:09;;;;;;;17.13;6.25;;;;;;;;;;4985562;28;20098;-94
2021/12/07 15:22:36;;;;;;;24.90;5.88;;;;;;;;;;4982961;28;20518;-94
2021/12/07 15:25:02;;;;;;;22.60;5.57;;;;;;;;;;4970101;28;20058;-92
2021/12/07 15:27:29;;;;;;;20.38;6.25;;;;;;;;;;4970065;28;20031;-95
2021/12/07 15:29:56;;;;;;;24.75;6.65;;;;;;;;;;4979531;28;20061;-96
2021/12/07 15:32:22;;;;;;;22.23;6.28;;;;;;;;;;4978233;28;20118;-96
2021/12/07 15:34:49;;;;;;;29.33;7.30;;;;;;;;;;4975059;28;20038;-92
2021/12/07 15:37:21;;;;;;;24.92;7.07;;;;;;;;;;4970898;28;20109;-93
2021/12/07 15:39:50;;;;;;;20.33;6.82;;;;;;;;;;4967359;28;20420;-95
2021/12/07 15:42:42;;;;;;;18.10;7.07;;;;;;;;;;4983478;28;20098;-96
2021/12/07 15:45:10;;;;;;;31.38;9.35;;;;;;;;;;4966241;28;20446;-94
2021/12/07 15:47:40;;;;;;;35.63;9.20;;;;;;;;;;4985667;28;20072;-96
2021/12/07 15:50:35;;;;;;;23.98;7.85;;;;;;;;;;4971708;28;20490;-96
2021/12/07 15:53:18;;;;;;;30.42;8.82;;;;;;;;;;4959242;28;20052;-96
2021/12/07 15:55:47;;;;;;;30.35;8.98;;;;;;;;;;4969018;28;20058;-94
2021/12/07 15:58:18;;;;;;;35.72;9.18;;;;;;;;;;4971093;28;20069;-95
2021/12/07 16:00:49;;;;;;;20.73;7.63;;;;;;;;;;4970299;28;20459;-95
2021/12/07 16:03:17;;;;;;;27.05;8.40;;;;;;;;;;4984233;28;20034;-95
2021/12/07 16:06:06;;;;;;;24.38;8.35;;;;;;;;;;4968154;28;20326;-94
2021/12/07 16:08:36;;;;;;;19.33;8.38;;;;;;;;;;4964511;28;20030;-95
2021/12/07 16:11:06;;;;;;;29.98;9.80;;;;;;;;;;4980574;28;20109;-95
2021/12/07 16:13:34;;;;;;;30.02;9.23;;;;;;;;;;4980215;28;20038;-95
2021/12/07 16:16:04;;;;;;;27.65;8.85;;;;;;;;;;4966707;28;20027;-96
2021/12/07 16:18:32;;;;;;;31.38;10.38;;;;;;;;;;4983299;28;20389;-93
2021/12/07 16:21:01;;;;;;;32.25;9.75;;;;;;;;;;4970885;28;20057;-95
2021/12/07 16:23:28;;;;;;;22.10;9.25;;;;;;;;;;4983501;28;20128;-94
2021/12/07 16:25:54;;;;;;;35.95;10.13;;;;;;;;;;4986359;23;20046;-81
2021/12/07 16:28:20;;;;;;;27.88;9.55;;;;;;;;;;4963455;28;20144;-81
2021/12/07 16:30:46;;;;;;;28.10;9.23;;;;;;;;;;4947611;28;20031;-81
2021/12/07 16:33:12;;;;;;;28.67;9.68;;;;;;;;;;4963534;28;20491;-81